ME25 weather

Sunrise Farms Airport
Fort Kent, Maine, United States

Public forecast

Using degrees Fahrenheit for public forecast. Weather courtesy of forecast.io.

Closest aviation weather report (METAR) to Sunrise Farms Airport

Closest report is Northern Aroostook Regional Airport, 7.9 nm (14.6 km) NNE. Retrieved 2020/03/29 17:53 UTC (14 minutes ago):

KFVE 291753Z AUTO 16011KT 10SM CLR 07/M10 A3020 RMK AO2 SLP236 T00721100 10078 21017 56016

Closest aviation forecast (TAF) to Sunrise Farms Airport

Closest forecast is Northern Aroostook Regional Airport, 7.9 nm (14.6 km) NNE. Retrieved 2020/03/29 18:42 UTC (0 seconds ago):

TAF KFVE 291740Z 2918/3018 14005KT P6SM OVC100 FM300300 11009KT 2SM -SN OVC030 FM300600 11012KT 1/2SM SN OVC015 FM301000 09009KT P6SM VCSH OVC017